createdAt,value
2023-02-19T00:01:46.388Z,2.53
2023-02-19T00:04:14.535Z,3.22
2023-02-19T00:06:41.594Z,2.58
2023-02-19T00:09:08.037Z,2.53
2023-02-19T00:11:35.288Z,2.70
2023-02-19T00:14:02.502Z,2.90
2023-02-19T00:16:33.189Z,2.55
2023-02-19T00:19:00.104Z,2.80
2023-02-19T00:21:27.100Z,2.60
2023-02-19T00:23:55.038Z,2.63
2023-02-19T00:26:21.567Z,2.67
2023-02-19T00:28:48.400Z,2.15
2023-02-19T00:31:18.556Z,2.05
2023-02-19T00:33:45.406Z,2.38
2023-02-19T00:36:12.395Z,3.08
2023-02-19T00:38:40.026Z,2.22
2023-02-19T00:41:19.114Z,2.67
2023-02-19T00:43:45.547Z,2.40
2023-02-19T00:46:12.009Z,2.63
2023-02-19T00:48:38.398Z,2.63
2023-02-19T00:51:04.959Z,2.00
2023-02-19T00:53:31.306Z,2.35
2023-02-19T00:55:57.609Z,1.80
2023-02-19T00:58:23.954Z,2.15
2023-02-19T01:00:50.258Z,1.90
2023-02-19T01:03:16.621Z,2.30
2023-02-19T01:05:43.098Z,2.30
2023-02-19T01:08:09.398Z,1.90
2023-02-19T01:10:35.964Z,2.00
2023-02-19T01:13:02.386Z,2.03
2023-02-19T01:15:29.848Z,2.05
2023-02-19T01:17:56.176Z,2.35
2023-02-19T01:20:22.577Z,2.22
2023-02-19T01:22:48.992Z,2.72
2023-02-19T01:25:15.418Z,1.85
2023-02-19T01:27:42.040Z,2.50
2023-02-19T01:30:08.785Z,2.20
2023-02-19T01:32:35.205Z,1.75
2023-02-19T01:35:01.649Z,1.48
2023-02-19T01:37:28.022Z,2.13
2023-02-19T01:39:54.380Z,1.95
2023-02-19T01:42:20.830Z,1.38
2023-02-19T01:44:47.208Z,1.77
2023-02-19T01:47:14.945Z,1.50
2023-02-19T01:49:48.911Z,1.60
2023-02-19T01:52:30.795Z,1.63
2023-02-19T01:54:57.872Z,1.35
2023-02-19T01:57:26.387Z,1.50
2023-02-19T01:59:55.246Z,1.58
2023-02-19T02:02:22.572Z,1.40
2023-02-19T02:04:49.085Z,1.40
2023-02-19T02:07:34.737Z,1.58
2023-02-19T02:10:19.539Z,1.17
2023-02-19T02:12:46.215Z,1.20
2023-02-19T02:15:13.129Z,1.10
2023-02-19T02:17:45.748Z,1.10
2023-02-19T02:20:15.218Z,1.05
2023-02-19T02:22:51.293Z,1.20
2023-02-19T02:25:23.466Z,1.00
2023-02-19T02:28:04.123Z,1.00
2023-02-19T02:30:30.660Z,0.80
2023-02-19T02:33:09.224Z,0.98
2023-02-19T02:35:50.933Z,1.15
2023-02-19T02:38:18.342Z,0.98
2023-02-19T02:40:45.131Z,0.98
2023-02-19T02:43:11.980Z,1.00
2023-02-19T02:45:40.054Z,0.90
2023-02-19T02:48:15.999Z,0.70
2023-02-19T02:50:46.115Z,0.73
2023-02-19T02:53:46.531Z,0.73
2023-02-19T02:56:14.463Z,0.52
2023-02-19T02:58:41.536Z,0.60
2023-02-19T03:01:38.661Z,0.80
2023-02-19T03:04:08.687Z,0.80
2023-02-19T03:06:36.020Z,0.60
2023-02-19T03:09:12.139Z,0.80
2023-02-19T03:11:58.593Z,0.60
2023-02-19T03:14:48.153Z,0.70
2023-02-19T03:17:43.204Z,0.60
2023-02-19T03:20:12.305Z,0.65
2023-02-19T03:22:40.494Z,0.60
2023-02-19T03:25:33.753Z,0.68
2023-02-19T03:28:01.434Z,0.63
2023-02-19T03:30:30.527Z,0.60
2023-02-19T03:33:08.103Z,0.50
2023-02-19T03:35:57.005Z,0.50
2023-02-19T03:38:27.152Z,0.68
2023-02-19T03:40:59.825Z,0.52
2023-02-19T03:43:39.031Z,0.60
2023-02-19T03:46:23.097Z,0.40
2023-02-19T03:49:12.788Z,0.40
2023-02-19T03:51:42.457Z,0.50
2023-02-19T03:54:15.432Z,0.80
2023-02-19T03:57:02.071Z,0.60
2023-02-19T03:59:28.458Z,0.80
2023-02-19T04:02:03.157Z,0.68
2023-02-19T04:04:34.554Z,1.00
2023-02-19T04:07:00.901Z,0.80
2023-02-19T04:09:31.647Z,1.13
2023-02-19T04:11:58.477Z,1.00
2023-02-19T04:14:27.075Z,0.77
2023-02-19T04:16:58.389Z,1.00
2023-02-19T04:19:26.001Z,0.90
2023-02-19T04:21:53.801Z,1.33
2023-02-19T04:24:26.605Z,1.27
2023-02-19T04:26:53.974Z,1.08
2023-02-19T04:29:20.379Z,1.48
2023-02-19T04:31:46.766Z,0.93
2023-02-19T04:34:13.079Z,1.10
2023-02-19T04:36:39.380Z,1.10
2023-02-19T04:39:05.772Z,1.00
2023-02-19T04:41:32.107Z,1.00
2023-02-19T04:43:58.499Z,0.85
2023-02-19T04:46:25.186Z,1.25
2023-02-19T04:48:51.764Z,1.20
2023-02-19T04:51:18.089Z,1.00
2023-02-19T04:53:44.427Z,1.00
2023-02-19T04:56:15.324Z,1.35
2023-02-19T04:58:42.225Z,1.15
2023-02-19T05:01:09.800Z,1.40
2023-02-19T05:03:36.611Z,0.85
2023-02-19T05:06:04.109Z,1.30
2023-02-19T05:08:30.754Z,1.30
2023-02-19T05:10:58.207Z,1.45
2023-02-19T05:13:24.816Z,1.30
2023-02-19T05:15:55.483Z,1.15
2023-02-19T05:18:21.822Z,1.10
2023-02-19T05:20:48.213Z,1.38
2023-02-19T05:23:14.549Z,1.08
2023-02-19T05:25:40.842Z,1.30
2023-02-19T05:28:19.500Z,1.00
2023-02-19T05:30:50.106Z,1.10
2023-02-19T05:33:17.471Z,1.13
2023-02-19T05:35:48.059Z,1.65
2023-02-19T05:38:14.939Z,1.40
2023-02-19T05:40:41.348Z,1.10
2023-02-19T05:43:08.036Z,1.27
2023-02-19T05:45:34.875Z,1.45
2023-02-19T05:48:01.344Z,1.20
2023-02-19T05:50:28.235Z,1.90
2023-02-19T05:52:54.696Z,1.95
2023-02-19T05:55:21.048Z,1.60
2023-02-19T05:57:48.118Z,1.77
2023-02-19T06:00:16.466Z,1.15
2023-02-19T06:02:43.162Z,0.93
2023-02-19T06:05:10.096Z,1.42
2023-02-19T06:07:36.926Z,1.65
2023-02-19T06:10:03.285Z,1.58
2023-02-19T06:12:29.622Z,2.00
2023-02-19T06:14:55.920Z,2.45
2023-02-19T06:17:22.274Z,2.28
2023-02-19T06:19:48.667Z,2.50
2023-02-19T06:22:15.433Z,2.50
2023-02-19T06:24:41.755Z,2.50
2023-02-19T06:27:08.796Z,2.45
2023-02-19T06:29:38.146Z,1.63
2023-02-19T06:32:05.514Z,1.92
2023-02-19T06:34:32.331Z,1.42
2023-02-19T06:36:58.908Z,2.17
2023-02-19T06:39:25.470Z,2.30
2023-02-19T06:41:54.547Z,1.40
2023-02-19T06:44:20.938Z,1.70
2023-02-19T06:46:47.261Z,2.00
2023-02-19T06:49:13.736Z,1.55
2023-02-19T06:51:40.012Z,1.70
2023-02-19T06:54:06.335Z,1.70
2023-02-19T06:56:37.642Z,1.45
2023-02-19T06:59:05.126Z,1.85
2023-02-19T07:01:32.642Z,2.10
2023-02-19T07:03:59.546Z,1.90
2023-02-19T07:06:26.454Z,2.10
2023-02-19T07:08:53.318Z,2.50
2023-02-19T07:11:19.840Z,2.50
2023-02-19T07:13:46.451Z,2.65
2023-02-19T07:16:13.241Z,2.53
2023-02-19T07:18:40.510Z,3.03
2023-02-19T07:21:08.368Z,2.63
2023-02-19T07:23:35.039Z,2.83
2023-02-19T07:26:01.379Z,2.47
2023-02-19T07:28:27.889Z,2.90
2023-02-19T07:30:59.796Z,2.72
2023-02-19T07:33:26.207Z,2.80
2023-02-19T07:35:52.557Z,3.65
2023-02-19T07:38:19.767Z,4.03
2023-02-19T07:40:56.682Z,4.38
2023-02-19T07:43:23.789Z,5.30
2023-02-19T07:45:50.294Z,4.28
2023-02-19T07:48:16.841Z,4.10
2023-02-19T07:50:50.462Z,3.72
2023-02-19T07:53:16.852Z,4.18
2023-02-19T07:55:43.183Z,4.00
2023-02-19T07:58:09.478Z,3.58
2023-02-19T08:00:35.763Z,4.30
2023-02-19T08:03:03.033Z,4.63
2023-02-19T08:05:31.257Z,4.30
2023-02-19T08:07:58.262Z,3.80
2023-02-19T08:10:43.731Z,3.55
2023-02-19T08:13:19.409Z,4.72
2023-02-19T08:15:46.814Z,4.50
2023-02-19T08:18:14.027Z,4.32
2023-02-19T08:20:40.810Z,4.10
2023-02-19T08:23:07.478Z,4.10
2023-02-19T08:25:33.918Z,4.25
2023-02-19T08:28:00.434Z,3.53
2023-02-19T08:30:27.887Z,3.58
2023-02-19T08:32:54.767Z,3.55
2023-02-19T08:35:21.467Z,2.90
2023-02-19T08:37:47.856Z,3.42
2023-02-19T08:40:14.204Z,3.42
2023-02-19T08:42:40.533Z,3.92
2023-02-19T08:45:07.289Z,2.90
2023-02-19T08:47:36.704Z,3.35
2023-02-19T08:50:04.959Z,3.83
2023-02-19T08:52:31.493Z,2.75
2023-02-19T08:54:58.191Z,2.65
2023-02-19T08:57:25.009Z,2.58
2023-02-19T08:59:51.329Z,3.10
2023-02-19T09:02:17.743Z,2.47
2023-02-19T09:04:44.050Z,2.53
2023-02-19T09:07:12.436Z,2.35
2023-02-19T09:09:38.836Z,2.85
2023-02-19T09:12:05.892Z,4.30
2023-02-19T09:14:33.618Z,2.97
2023-02-19T09:17:00.524Z,3.25
2023-02-19T09:19:27.657Z,3.90
2023-02-19T09:21:54.661Z,2.90
2023-02-19T09:24:21.459Z,4.03
2023-02-19T09:26:54.587Z,3.83
2023-02-19T09:29:22.092Z,3.00
2023-02-19T09:31:48.509Z,2.38
2023-02-19T09:34:14.969Z,2.65
2023-02-19T09:36:41.300Z,2.60
2023-02-19T09:39:08.321Z,3.33
2023-02-19T09:41:39.434Z,3.65
2023-02-19T09:44:07.649Z,3.30
2023-02-19T09:46:43.987Z,3.10
2023-02-19T09:49:15.619Z,2.10
2023-02-19T09:51:43.957Z,3.33
2023-02-19T09:54:14.943Z,2.88
2023-02-19T09:56:41.402Z,3.10
2023-02-19T09:59:15.391Z,2.50
2023-02-19T10:01:42.244Z,3.70
2023-02-19T10:04:09.927Z,3.40
2023-02-19T10:06:37.985Z,3.30
2023-02-19T10:09:13.481Z,4.38
2023-02-19T10:11:40.282Z,3.90
2023-02-19T10:14:09.470Z,4.57
2023-02-19T10:16:40.468Z,3.78
2023-02-19T10:19:10.108Z,4.10
2023-02-19T10:21:37.531Z,2.38
2023-02-19T10:24:05.433Z,4.93
2023-02-19T10:26:35.265Z,3.45
2023-02-19T10:29:02.001Z,3.58
2023-02-19T10:31:28.583Z,4.40
2023-02-19T10:33:56.169Z,4.10
2023-02-19T10:36:29.843Z,4.68
2023-02-19T10:38:58.315Z,4.18
2023-02-19T10:41:25.467Z,3.97
2023-02-19T10:44:11.937Z,3.70
2023-02-19T10:46:45.739Z,3.70
2023-02-19T10:49:28.030Z,4.60
2023-02-19T10:51:55.787Z,4.20
2023-02-19T10:54:35.634Z,4.82
2023-02-19T10:57:16.998Z,3.92
2023-02-19T10:59:50.528Z,3.65
2023-02-19T11:02:18.543Z,3.63
2023-02-19T11:05:03.740Z,3.58
2023-02-19T11:07:30.140Z,3.72
2023-02-19T11:09:56.707Z,3.65
2023-02-19T11:12:27.182Z,3.92
2023-02-19T11:14:54.066Z,3.65
2023-02-19T11:17:28.734Z,3.40
2023-02-19T11:19:56.833Z,4.00
2023-02-19T11:22:31.722Z,4.50
2023-02-19T11:25:06.259Z,4.57
2023-02-19T11:27:32.824Z,4.10
2023-02-19T11:30:17.777Z,4.85
2023-02-19T11:32:44.171Z,3.42
2023-02-19T11:35:18.332Z,3.45
2023-02-19T11:37:57.018Z,3.15
2023-02-19T11:40:41.792Z,2.42
2023-02-19T11:43:08.163Z,2.35
2023-02-19T11:45:44.207Z,2.42
2023-02-19T11:48:10.852Z,2.80
2023-02-19T11:51:03.509Z,2.90
2023-02-19T11:53:32.578Z,2.13
2023-02-19T11:56:05.121Z,2.17
2023-02-19T11:58:44.570Z,2.60
2023-02-19T12:01:29.789Z,2.00
2023-02-19T12:04:10.963Z,4.18
2023-02-19T12:06:40.387Z,3.10
2023-02-19T12:09:25.631Z,3.85
2023-02-19T12:11:53.502Z,3.97
2023-02-19T12:14:35.214Z,3.30
2023-02-19T12:17:16.937Z,4.15
2023-02-19T12:20:02.344Z,3.42
2023-02-19T12:22:40.628Z,4.10
2023-02-19T12:25:29.277Z,3.88
2023-02-19T12:28:14.198Z,3.47
2023-02-19T12:30:43.660Z,3.80
2023-02-19T12:33:33.091Z,3.22
2023-02-19T12:36:06.992Z,3.47
2023-02-19T12:38:43.105Z,3.58
2023-02-19T12:41:13.181Z,2.45
2023-02-19T12:43:41.862Z,2.55
2023-02-19T12:46:20.208Z,2.65
2023-02-19T12:48:53.400Z,2.47
2023-02-19T12:51:23.390Z,2.20
2023-02-19T12:53:54.224Z,2.10
2023-02-19T12:56:26.559Z,2.22
2023-02-19T12:58:58.736Z,2.25
2023-02-19T13:01:34.699Z,2.20
2023-02-19T13:04:19.430Z,2.20
2023-02-19T13:06:53.878Z,2.53
2023-02-19T13:09:32.500Z,2.03
2023-02-19T13:12:08.293Z,2.08
2023-02-19T13:14:39.892Z,2.03
2023-02-19T13:17:13.666Z,1.95
2023-02-19T13:19:40.177Z,2.38
2023-02-19T13:22:37.676Z,2.42
2023-02-19T13:25:05.916Z,1.95
2023-02-19T13:27:32.579Z,2.05
2023-02-19T13:30:05.367Z,2.42
2023-02-19T13:32:50.492Z,1.92
2023-02-19T13:35:46.005Z,1.90
2023-02-19T13:38:13.050Z,2.00
2023-02-19T13:40:40.203Z,2.25
2023-02-19T13:43:08.479Z,1.83
2023-02-19T13:45:37.762Z,2.30
2023-02-19T13:48:15.692Z,2.40
2023-02-19T13:50:42.320Z,2.42
2023-02-19T13:53:27.674Z,2.70
2023-02-19T13:55:54.117Z,2.35
2023-02-19T13:58:32.500Z,2.20
2023-02-19T14:01:08.772Z,2.13
2023-02-19T14:04:06.528Z,1.58
2023-02-19T14:06:52.849Z,1.70
2023-02-19T14:09:34.440Z,2.10
2023-02-19T14:12:03.543Z,1.98
2023-02-19T14:14:36.143Z,1.80
2023-02-19T14:17:07.659Z,1.80
2023-02-19T14:19:54.600Z,1.75
2023-02-19T14:22:39.723Z,1.45
2023-02-19T14:25:09.502Z,1.30
2023-02-19T14:27:37.564Z,1.40
2023-02-19T14:30:05.121Z,1.67
2023-02-19T14:32:31.693Z,1.60
2023-02-19T14:34:58.210Z,1.30
2023-02-19T14:37:25.435Z,1.67
2023-02-19T14:39:54.364Z,0.98
2023-02-19T14:42:23.694Z,0.95
2023-02-19T14:44:55.522Z,1.10
2023-02-19T14:47:23.190Z,0.80
2023-02-19T14:49:58.323Z,0.82
2023-02-19T14:52:28.311Z,1.25
2023-02-19T14:54:57.275Z,0.90
2023-02-19T14:57:25.518Z,1.20
2023-02-19T15:00:02.279Z,1.13
2023-02-19T15:02:29.898Z,1.10
2023-02-19T15:04:56.799Z,1.08
2023-02-19T15:07:25.060Z,1.45
2023-02-19T15:09:52.411Z,1.40
2023-02-19T15:12:21.326Z,1.10
2023-02-19T15:14:48.656Z,1.10
2023-02-19T15:17:20.018Z,1.02
2023-02-19T15:19:46.384Z,1.38
2023-02-19T15:22:18.907Z,1.50
2023-02-19T15:24:48.734Z,1.17
2023-02-19T15:27:22.820Z,1.20
2023-02-19T15:29:53.198Z,0.98
2023-02-19T15:32:24.080Z,1.10
2023-02-19T15:34:55.532Z,1.10
2023-02-19T15:37:22.486Z,1.10
2023-02-19T15:39:50.597Z,1.00
2023-02-19T15:42:30.452Z,1.00
2023-02-19T15:45:05.727Z,1.40
2023-02-19T15:47:35.225Z,0.98
2023-02-19T15:50:09.496Z,1.00
2023-02-19T15:52:41.881Z,1.00
2023-02-19T15:55:30.054Z,1.35
2023-02-19T15:57:59.255Z,1.30
2023-02-19T16:00:38.242Z,1.80
2023-02-19T16:03:05.582Z,1.80
2023-02-19T16:05:36.975Z,1.35
2023-02-19T16:08:08.262Z,1.50
2023-02-19T16:10:34.659Z,1.80
2023-02-19T16:13:01.959Z,1.38
2023-02-19T16:15:29.310Z,1.38
2023-02-19T16:17:56.447Z,1.98
2023-02-19T16:20:24.584Z,1.90
2023-02-19T16:22:51.561Z,1.60
2023-02-19T16:25:25.939Z,1.50
2023-02-19T16:27:52.507Z,1.83
2023-02-19T16:30:25.616Z,1.40
2023-02-19T16:33:11.014Z,1.60
2023-02-19T16:35:40.594Z,1.35
2023-02-19T16:38:13.914Z,1.40
2023-02-19T16:40:43.163Z,1.30
2023-02-19T16:43:15.769Z,1.85
2023-02-19T16:45:42.705Z,1.90
2023-02-19T16:48:09.580Z,1.80
2023-02-19T16:50:36.207Z,1.67
2023-02-19T16:53:03.453Z,1.90
2023-02-19T16:55:31.129Z,1.77
2023-02-19T16:57:58.001Z,1.50
2023-02-19T17:00:25.961Z,1.80
2023-02-19T17:02:53.415Z,2.05
2023-02-19T17:05:20.252Z,1.55
2023-02-19T17:07:46.630Z,1.30
2023-02-19T17:10:16.356Z,1.70
2023-02-19T17:12:42.939Z,1.70
2023-02-19T17:15:09.348Z,1.52
2023-02-19T17:17:35.778Z,1.65
2023-02-19T17:20:02.127Z,2.28
2023-02-19T17:22:28.744Z,2.20
2023-02-19T17:24:55.226Z,2.45
2023-02-19T17:27:21.592Z,2.78
2023-02-19T17:29:47.939Z,2.88
2023-02-19T17:32:14.710Z,1.70
2023-02-19T17:34:41.258Z,2.17
2023-02-19T17:37:07.607Z,2.28
2023-02-19T17:39:33.900Z,2.00
2023-02-19T17:42:00.297Z,1.58
2023-02-19T17:44:26.582Z,1.90
2023-02-19T17:46:52.870Z,2.45
2023-02-19T17:49:19.696Z,1.77
2023-02-19T17:51:45.992Z,2.17
2023-02-19T17:54:12.517Z,1.92
2023-02-19T17:56:43.279Z,1.67
2023-02-19T17:59:09.826Z,2.20
2023-02-19T18:01:36.381Z,1.60
2023-02-19T18:04:02.973Z,2.10
2023-02-19T18:06:29.414Z,2.15
2023-02-19T18:08:55.878Z,1.40
2023-02-19T18:11:22.766Z,1.25
2023-02-19T18:13:50.081Z,1.23
2023-02-19T18:16:17.243Z,1.77
2023-02-19T18:18:44.378Z,2.00
2023-02-19T18:21:12.044Z,1.70
2023-02-19T18:23:39.040Z,3.10
2023-02-19T18:26:10.362Z,2.28
2023-02-19T18:28:37.663Z,2.00
2023-02-19T18:31:04.333Z,2.03
2023-02-19T18:33:30.868Z,2.55
2023-02-19T18:35:57.221Z,2.90
2023-02-19T18:38:23.612Z,2.90
2023-02-19T18:40:50.393Z,2.45
2023-02-19T18:43:16.670Z,3.70
2023-02-19T18:45:45.382Z,2.95
2023-02-19T18:48:12.101Z,2.58
2023-02-19T18:50:38.528Z,2.80
2023-02-19T18:53:04.950Z,2.58
2023-02-19T18:55:31.353Z,2.90
2023-02-19T18:57:57.765Z,2.92
2023-02-19T19:00:26.457Z,3.10
2023-02-19T19:02:59.606Z,3.80
2023-02-19T19:05:26.538Z,3.30
2023-02-19T19:07:54.006Z,3.97
2023-02-19T19:10:20.455Z,2.88
2023-02-19T19:12:47.224Z,2.70
2023-02-19T19:15:14.825Z,2.33
2023-02-19T19:17:42.165Z,3.00
2023-02-19T19:20:09.041Z,3.20
2023-02-19T19:22:35.487Z,2.85
2023-02-19T19:25:01.902Z,3.05
2023-02-19T19:27:28.242Z,4.07
2023-02-19T19:29:54.538Z,4.70
2023-02-19T19:32:21.028Z,4.30
2023-02-19T19:34:47.602Z,3.17
2023-02-19T19:37:14.014Z,3.10
2023-02-19T19:39:42.213Z,3.25
2023-02-19T19:42:09.303Z,2.55
2023-02-19T19:44:35.651Z,3.13
2023-02-19T19:47:02.063Z,3.38
2023-02-19T19:49:28.449Z,3.83
2023-02-19T19:51:57.070Z,3.00
2023-02-19T19:54:24.733Z,3.97
2023-02-19T19:56:51.108Z,3.80
2023-02-19T19:59:17.753Z,4.70
2023-02-19T20:02:03.228Z,4.65
2023-02-19T20:04:29.879Z,4.28
2023-02-19T20:06:58.433Z,5.15
2023-02-19T20:09:25.649Z,5.07
2023-02-19T20:11:53.326Z,5.15
2023-02-19T20:14:19.922Z,4.57
2023-02-19T20:16:47.533Z,4.75
2023-02-19T20:19:17.503Z,4.90
2023-02-19T20:21:44.471Z,4.78
2023-02-19T20:24:13.516Z,4.80
2023-02-19T20:26:39.892Z,5.03
2023-02-19T20:29:07.029Z,3.50
2023-02-19T20:31:33.834Z,4.78
2023-02-19T20:34:00.470Z,3.70
2023-02-19T20:36:28.505Z,3.60
2023-02-19T20:38:55.398Z,4.00
2023-02-19T20:41:21.790Z,3.85
2023-02-19T20:43:48.192Z,4.43
2023-02-19T20:46:15.004Z,5.70
2023-02-19T20:48:41.535Z,4.10
2023-02-19T20:51:07.930Z,3.30
2023-02-19T20:53:34.372Z,4.28
2023-02-19T20:56:00.814Z,4.90
2023-02-19T20:58:27.209Z,4.05
2023-02-19T21:00:54.303Z,4.32
2023-02-19T21:03:20.914Z,4.32
2023-02-19T21:05:47.330Z,4.22
2023-02-19T21:08:14.991Z,3.72
2023-02-19T21:10:41.281Z,3.20
2023-02-19T21:13:07.667Z,2.97
2023-02-19T21:15:34.423Z,4.72
2023-02-19T21:18:00.778Z,3.75
2023-02-19T21:20:27.138Z,3.80
2023-02-19T21:22:53.616Z,3.83
2023-02-19T21:25:19.985Z,3.35
2023-02-19T21:27:46.304Z,3.47
2023-02-19T21:30:12.825Z,2.97
2023-02-19T21:32:39.147Z,2.35
2023-02-19T21:35:05.946Z,3.00
2023-02-19T21:37:32.323Z,2.65
2023-02-19T21:40:00.345Z,3.30
2023-02-19T21:42:26.823Z,3.30
2023-02-19T21:44:53.236Z,2.80
2023-02-19T21:47:19.572Z,1.75
2023-02-19T21:49:45.893Z,1.83
2023-02-19T21:52:12.222Z,2.22
2023-02-19T21:54:38.559Z,2.05
2023-02-19T21:57:04.878Z,2.20
2023-02-19T21:59:31.470Z,2.28
2023-02-19T22:01:57.848Z,2.97
2023-02-19T22:04:24.632Z,3.28
2023-02-19T22:06:54.531Z,3.15
2023-02-19T22:09:20.837Z,2.90
2023-02-19T22:11:47.168Z,4.03
2023-02-19T22:14:13.591Z,3.40
2023-02-19T22:16:39.997Z,3.53
2023-02-19T22:19:06.330Z,2.60
2023-02-19T22:21:32.791Z,2.70
2023-02-19T22:23:59.765Z,2.78
2023-02-19T22:26:28.712Z,1.95
2023-02-19T22:28:55.317Z,2.20
2023-02-19T22:31:22.765Z,2.13
2023-02-19T22:33:49.177Z,2.17
2023-02-19T22:36:22.869Z,2.17
2023-02-19T22:38:49.527Z,3.13
2023-02-19T22:41:16.446Z,2.40
2023-02-19T22:43:43.106Z,3.17
2023-02-19T22:46:14.629Z,3.10
2023-02-19T22:48:41.194Z,2.42
2023-02-19T22:51:13.175Z,2.17
2023-02-19T22:56:05.982Z,2.17
2023-02-19T22:58:32.401Z,2.17
2023-02-19T23:00:58.776Z,2.00
2023-02-19T23:03:25.116Z,1.95
2023-02-19T23:05:51.495Z,2.38
2023-02-19T23:08:17.872Z,2.28
2023-02-19T23:10:44.209Z,2.10
2023-02-19T23:13:10.950Z,1.90
2023-02-19T23:15:37.318Z,1.65
2023-02-19T23:18:04.632Z,1.60
2023-02-19T23:20:31.101Z,1.38
2023-02-19T23:22:57.389Z,1.52
2023-02-19T23:25:23.710Z,2.55
2023-02-19T23:27:50.162Z,2.00
2023-02-19T23:30:17.098Z,1.67
2023-02-19T23:32:43.468Z,1.45
2023-02-19T23:35:09.834Z,1.52
2023-02-19T23:37:36.139Z,1.30
2023-02-19T23:40:02.555Z,1.63
2023-02-19T23:42:28.947Z,1.50
2023-02-19T23:44:55.278Z,2.08
2023-02-19T23:47:22.510Z,1.90
2023-02-19T23:49:48.980Z,1.80
2023-02-19T23:52:15.344Z,2.22
2023-02-19T23:54:41.738Z,1.83
2023-02-19T23:57:08.333Z,1.83
2023-02-19T23:59:34.642Z,1.77
